createdAt,value
2022-08-17T00:01:30.370Z,24.40
2022-08-17T00:04:19.038Z,24.40
2022-08-17T00:06:46.265Z,24.40
2022-08-17T00:09:18.398Z,24.30
2022-08-17T00:12:42.663Z,24.30
2022-08-17T00:14:36.062Z,24.40
2022-08-17T00:17:04.749Z,24.40
2022-08-17T00:19:32.936Z,24.30
2022-08-17T00:22:31.423Z,24.30
2022-08-17T00:24:50.118Z,24.40
2022-08-17T00:27:17.316Z,24.30
2022-08-17T00:29:45.827Z,24.30
2022-08-17T00:33:14.103Z,24.30
2022-08-17T00:35:05.212Z,24.30
2022-08-17T00:37:32.004Z,24.20
2022-08-17T00:39:58.888Z,24.20
2022-08-17T00:42:30.778Z,24.10
2022-08-17T00:44:58.513Z,24.10
2022-08-17T00:47:25.419Z,24.10
2022-08-17T00:49:52.310Z,24.20
2022-08-17T00:52:23.172Z,24.10
2022-08-17T00:54:53.945Z,24.10
2022-08-17T00:57:30.006Z,24.10
2022-08-17T01:00:07.660Z,24.10
2022-08-17T01:02:41.566Z,23.90
2022-08-17T01:05:21.557Z,23.80
2022-08-17T01:07:50.880Z,23.90
2022-08-17T01:10:59.823Z,23.90
2022-08-17T01:13:10.739Z,23.90
2022-08-17T01:15:41.449Z,23.90
2022-08-17T01:18:13.633Z,23.90
2022-08-17T01:20:59.070Z,23.90
2022-08-17T01:23:28.856Z,24.00
2022-08-17T01:25:58.706Z,24.10
2022-08-17T01:28:53.018Z,24.10
2022-08-17T01:31:15.207Z,24.20
2022-08-17T01:33:42.237Z,24.10
2022-08-17T01:36:09.257Z,24.10
2022-08-17T01:38:38.337Z,24.20
2022-08-17T01:41:12.527Z,24.20
2022-08-17T01:43:50.764Z,24.30
2022-08-17T01:46:24.176Z,24.40
2022-08-17T01:48:51.546Z,24.50
2022-08-17T01:51:19.812Z,24.50
2022-08-17T01:53:51.520Z,24.60
2022-08-17T01:56:22.973Z,24.70
2022-08-17T01:58:50.157Z,24.70
2022-08-17T02:01:23.295Z,24.70
2022-08-17T02:03:56.210Z,24.60
2022-08-17T02:06:30.212Z,24.60
2022-08-17T02:09:02.795Z,24.70
2022-08-17T02:11:34.901Z,24.70
2022-08-17T02:14:03.153Z,24.70
2022-08-17T02:16:37.797Z,24.60
2022-08-17T02:19:12.257Z,24.60
2022-08-17T02:21:40.919Z,24.70
2022-08-17T02:24:11.648Z,24.70
2022-08-17T02:26:38.886Z,24.80
2022-08-17T02:29:05.681Z,24.80
2022-08-17T02:31:32.679Z,24.80
2022-08-17T02:34:04.195Z,24.90
2022-08-17T02:36:34.316Z,25.00
2022-08-17T02:39:06.719Z,25.00
2022-08-17T02:41:33.931Z,25.00
2022-08-17T02:44:01.134Z,25.10
2022-08-17T02:46:28.384Z,25.10
2022-08-17T02:48:55.718Z,25.20
2022-08-17T02:51:22.918Z,25.20
2022-08-17T02:53:49.795Z,25.20
2022-08-17T02:56:16.690Z,25.30
2022-08-17T02:58:43.470Z,25.40
2022-08-17T03:01:10.693Z,25.40
2022-08-17T03:03:38.905Z,25.50
2022-08-17T03:06:07.531Z,25.60
2022-08-17T03:08:35.009Z,25.60
2022-08-17T03:11:01.902Z,25.60
2022-08-17T03:13:28.718Z,25.70
2022-08-17T03:15:55.576Z,25.70
2022-08-17T03:18:25.617Z,25.80
2022-08-17T03:20:55.505Z,25.90
2022-08-17T03:23:24.068Z,25.90
2022-08-17T03:25:53.884Z,26.00
2022-08-17T03:28:21.774Z,26.00
2022-08-17T03:30:51.059Z,26.10
2022-08-17T03:33:19.524Z,26.10
2022-08-17T03:35:46.586Z,26.20
2022-08-17T03:38:17.027Z,26.20
2022-08-17T03:40:58.835Z,26.30
2022-08-17T03:43:30.783Z,26.30
2022-08-17T03:46:34.698Z,26.40
2022-08-17T03:49:25.776Z,26.40
2022-08-17T03:52:12.173Z,26.50
2022-08-17T03:54:58.113Z,26.50
2022-08-17T03:57:25.857Z,26.50
2022-08-17T03:59:53.804Z,26.60
2022-08-17T04:02:28.529Z,26.70
2022-08-17T04:04:55.920Z,26.70
2022-08-17T04:07:25.779Z,26.80
2022-08-17T04:09:52.854Z,26.90
2022-08-17T04:12:21.945Z,26.90
2022-08-17T04:14:53.286Z,26.90
2022-08-17T04:17:24.250Z,27.00
2022-08-17T04:19:51.721Z,27.10
2022-08-17T04:22:30.291Z,27.20
2022-08-17T04:25:04.845Z,27.30
2022-08-17T04:27:31.822Z,27.30
2022-08-17T04:29:58.721Z,27.40
2022-08-17T04:33:02.905Z,27.50
2022-08-17T04:35:12.438Z,27.60
2022-08-17T04:37:39.250Z,27.70
2022-08-17T04:40:27.378Z,27.70
2022-08-17T04:43:07.410Z,27.70
2022-08-17T04:45:34.651Z,27.70
2022-08-17T04:48:01.506Z,27.90
2022-08-17T04:50:28.402Z,27.90
2022-08-17T04:52:55.515Z,27.80
2022-08-17T04:55:22.565Z,27.90
2022-08-17T04:57:49.400Z,27.90
2022-08-17T05:00:16.330Z,28.00
2022-08-17T05:02:51.101Z,27.90
2022-08-17T05:05:20.840Z,27.90
2022-08-17T05:07:51.649Z,27.90
2022-08-17T05:10:20.043Z,28.00
2022-08-17T05:12:47.035Z,27.90
2022-08-17T05:15:16.289Z,27.90
2022-08-17T05:17:43.924Z,27.70
2022-08-17T05:20:11.674Z,27.70
2022-08-17T05:22:56.724Z,27.60
2022-08-17T05:25:29.459Z,27.40
2022-08-17T05:27:59.880Z,27.50
2022-08-17T05:30:29.002Z,27.40
2022-08-17T05:33:00.476Z,27.40
2022-08-17T05:35:29.800Z,27.30
2022-08-17T05:37:56.873Z,27.40
2022-08-17T05:40:25.988Z,27.10
2022-08-17T05:43:07.880Z,27.40
2022-08-17T05:45:55.907Z,27.10
2022-08-17T05:48:39.795Z,27.10
2022-08-17T05:51:33.793Z,27.30
2022-08-17T05:54:17.625Z,27.40
2022-08-17T05:56:59.465Z,27.40
2022-08-17T05:59:48.231Z,27.30
2022-08-17T06:02:28.042Z,27.50
2022-08-17T06:05:11.086Z,27.60
2022-08-17T06:07:40.838Z,27.60
2022-08-17T06:10:29.304Z,27.60
2022-08-17T06:13:28.756Z,27.80
2022-08-17T06:16:04.362Z,28.00
2022-08-17T06:19:00.103Z,28.30
2022-08-17T06:21:32.827Z,28.70
2022-08-17T06:24:08.258Z,28.90
2022-08-17T06:26:42.936Z,29.20
2022-08-17T06:29:35.403Z,29.50
2022-08-17T06:32:03.434Z,29.80
2022-08-17T06:34:31.672Z,30.00
2022-08-17T06:37:20.070Z,30.00
2022-08-17T06:39:59.798Z,30.30
2022-08-17T06:42:54.619Z,30.50
2022-08-17T06:45:40.892Z,30.50
2022-08-17T06:48:46.922Z,30.50
2022-08-17T06:51:33.406Z,30.60
2022-08-17T06:54:11.194Z,30.70
2022-08-17T06:56:55.327Z,30.80
2022-08-17T06:59:56.712Z,30.90
2022-08-17T07:02:52.729Z,30.80
2022-08-17T07:05:38.950Z,30.90
2022-08-17T07:08:27.709Z,30.90
2022-08-17T07:11:01.169Z,30.80
2022-08-17T07:13:53.411Z,31.00
2022-08-17T07:16:52.170Z,31.00
2022-08-17T07:19:22.619Z,30.90
2022-08-17T07:22:30.705Z,30.50
2022-08-17T07:25:18.738Z,30.20
2022-08-17T07:27:53.057Z,29.80
2022-08-17T07:30:27.803Z,29.30
2022-08-17T07:32:59.951Z,29.00
2022-08-17T07:35:31.296Z,28.40
2022-08-17T07:38:25.626Z,28.20
2022-08-17T07:40:57.670Z,27.80
2022-08-17T07:43:34.861Z,27.60
2022-08-17T07:46:46.200Z,27.50
2022-08-17T07:49:12.925Z,27.50
2022-08-17T07:51:42.722Z,27.30
2022-08-17T07:54:15.494Z,26.90
2022-08-17T07:56:48.783Z,26.90
2022-08-17T07:59:23.740Z,26.90
2022-08-17T08:01:57.936Z,26.80
2022-08-17T08:04:59.097Z,27.00
2022-08-17T08:07:31.998Z,26.70
2022-08-17T08:10:05.265Z,26.80
2022-08-17T08:12:34.513Z,26.80
2022-08-17T08:15:10.132Z,26.60
2022-08-17T08:17:51.970Z,26.90
2022-08-17T08:20:42.407Z,26.90
2022-08-17T08:23:20.136Z,26.90
2022-08-17T08:26:09.771Z,26.20
2022-08-17T08:29:08.345Z,26.20
2022-08-17T08:31:54.790Z,25.80
2022-08-17T08:34:44.553Z,25.70
2022-08-17T08:37:33.718Z,25.50
2022-08-17T08:40:11.429Z,26.00
2022-08-17T08:43:04.982Z,25.60
2022-08-17T08:45:47.120Z,25.40
2022-08-17T08:48:55.690Z,25.00
2022-08-17T08:51:39.886Z,25.00
2022-08-17T08:54:35.260Z,25.10
2022-08-17T08:57:32.884Z,24.90
2022-08-17T09:00:20.145Z,25.00
2022-08-17T09:03:32.407Z,25.30
2022-08-17T09:06:33.363Z,25.20
2022-08-17T09:09:04.895Z,25.50
2022-08-17T09:12:03.655Z,25.00
2022-08-17T09:14:46.418Z,25.00
2022-08-17T09:17:25.397Z,24.60
2022-08-17T09:19:59.496Z,24.30
2022-08-17T09:22:32.397Z,24.60
2022-08-17T09:25:03.864Z,24.80
2022-08-17T09:27:58.520Z,24.90
2022-08-17T09:30:36.325Z,24.70
2022-08-17T09:33:08.922Z,24.50
2022-08-17T09:35:44.527Z,24.70
2022-08-17T09:38:35.589Z,24.80
2022-08-17T09:41:25.424Z,25.00
2022-08-17T09:43:55.056Z,25.00
2022-08-17T09:46:38.851Z,25.10
2022-08-17T09:49:09.878Z,25.40
2022-08-17T09:51:52.230Z,25.20
2022-08-17T09:54:42.018Z,25.40
2022-08-17T09:57:29.957Z,25.80
2022-08-17T10:00:27.898Z,25.30
2022-08-17T10:03:04.510Z,26.00
2022-08-17T10:05:46.372Z,25.70
2022-08-17T10:08:52.329Z,26.00
2022-08-17T10:12:05.517Z,26.40
2022-08-17T10:14:55.148Z,26.40
2022-08-17T10:17:50.694Z,26.50
2022-08-17T10:20:25.690Z,26.40
2022-08-17T10:23:21.481Z,27.30
2022-08-17T10:26:15.478Z,28.50
2022-08-17T10:28:45.254Z,27.80
2022-08-17T10:31:34.830Z,27.20
2022-08-17T10:34:27.151Z,27.00
2022-08-17T10:36:59.686Z,26.80
2022-08-17T10:39:30.626Z,26.50
2022-08-17T10:42:03.121Z,26.20
2022-08-17T10:44:47.021Z,26.40
2022-08-17T10:47:17.035Z,26.60
2022-08-17T10:49:49.479Z,26.40
2022-08-17T10:52:30.490Z,26.70
2022-08-17T10:55:14.207Z,26.80
2022-08-17T10:57:44.793Z,27.00
2022-08-17T11:00:17.835Z,26.90
2022-08-17T11:02:57.586Z,26.70
2022-08-17T11:05:50.384Z,26.80
2022-08-17T11:08:26.597Z,26.50
2022-08-17T11:11:01.294Z,26.30
2022-08-17T11:13:37.871Z,26.50
2022-08-17T11:16:23.226Z,26.20
2022-08-17T11:19:14.116Z,26.10
2022-08-17T11:22:19.594Z,26.40
2022-08-17T11:24:49.132Z,26.10
2022-08-17T11:27:27.957Z,26.50
2022-08-17T11:30:08.352Z,26.40
2022-08-17T11:32:47.802Z,26.50
2022-08-17T11:35:21.248Z,26.70
2022-08-17T11:37:50.781Z,26.90
2022-08-17T11:40:17.594Z,26.80
2022-08-17T11:42:56.895Z,26.60
2022-08-17T11:45:33.092Z,26.60
2022-08-17T11:48:36.783Z,26.90
2022-08-17T11:51:24.803Z,26.70
2022-08-17T11:54:03.604Z,26.60
2022-08-17T11:56:46.430Z,26.90
2022-08-17T11:59:39.191Z,26.80
2022-08-17T12:02:34.959Z,26.50
2022-08-17T12:05:17.051Z,27.10
2022-08-17T12:08:04.023Z,26.50
2022-08-17T12:10:35.499Z,26.80
2022-08-17T12:13:15.596Z,27.20
2022-08-17T12:15:50.462Z,27.10
2022-08-17T12:18:30.745Z,27.70
2022-08-17T12:21:09.589Z,27.50
2022-08-17T12:23:57.516Z,27.60
2022-08-17T12:26:33.525Z,27.20
2022-08-17T12:29:03.946Z,27.30
2022-08-17T12:31:44.264Z,27.10
2022-08-17T12:34:19.097Z,27.20
2022-08-17T12:36:50.274Z,26.50
2022-08-17T12:39:24.929Z,26.70
2022-08-17T12:42:01.924Z,26.50
2022-08-17T12:44:31.309Z,26.60
2022-08-17T12:47:07.560Z,26.60
2022-08-17T12:49:36.963Z,26.60
2022-08-17T12:52:13.765Z,26.50
2022-08-17T12:55:00.387Z,26.30
2022-08-17T12:57:33.153Z,26.40
2022-08-17T13:00:16.329Z,26.50
2022-08-17T13:02:53.026Z,26.40
2022-08-17T13:05:54.553Z,26.60
2022-08-17T13:08:39.208Z,26.20
2022-08-17T13:11:26.364Z,26.20
2022-08-17T13:13:56.206Z,26.40
2022-08-17T13:16:30.754Z,26.40
2022-08-17T13:19:15.136Z,26.60
2022-08-17T13:21:57.894Z,26.90
2022-08-17T13:24:30.720Z,26.80
2022-08-17T13:27:08.051Z,26.90
2022-08-17T13:29:40.753Z,27.10
2022-08-17T13:32:11.563Z,27.10
2022-08-17T13:35:12.306Z,26.70
2022-08-17T13:37:36.434Z,26.90
2022-08-17T13:40:09.273Z,27.30
2022-08-17T13:42:50.184Z,27.40
2022-08-17T13:45:36.743Z,27.50
2022-08-17T13:48:18.942Z,27.20
2022-08-17T13:50:49.553Z,27.00
2022-08-17T13:53:23.242Z,26.80
2022-08-17T13:56:37.167Z,27.40
2022-08-17T13:59:05.586Z,27.60
2022-08-17T14:01:37.873Z,27.50
2022-08-17T14:04:08.397Z,27.10
2022-08-17T14:07:12.538Z,26.90
2022-08-17T14:09:50.166Z,26.70
2022-08-17T14:12:23.467Z,26.60
2022-08-17T14:14:50.745Z,26.40
2022-08-17T14:17:18.868Z,26.40
2022-08-17T14:19:45.690Z,26.20
2022-08-17T14:22:22.732Z,26.10
2022-08-17T14:24:51.294Z,26.00
2022-08-17T14:27:20.424Z,26.00
2022-08-17T14:29:47.778Z,26.00
2022-08-17T14:32:27.669Z,26.00
2022-08-17T14:34:57.660Z,26.00
2022-08-17T14:37:27.988Z,25.80
2022-08-17T14:39:56.623Z,25.80
2022-08-17T14:42:25.882Z,25.90
2022-08-17T14:44:54.384Z,25.80
2022-08-17T14:47:22.002Z,25.90
2022-08-17T14:49:49.332Z,25.80
2022-08-17T14:52:21.757Z,25.70
2022-08-17T14:54:51.368Z,25.60
2022-08-17T14:57:34.306Z,25.50
2022-08-17T15:00:02.137Z,25.50
2022-08-17T15:02:30.863Z,25.50
2022-08-17T15:05:06.035Z,25.40
2022-08-17T15:07:32.907Z,25.40
2022-08-17T15:10:01.404Z,25.30
2022-08-17T15:12:33.084Z,25.30
2022-08-17T15:15:01.411Z,25.30
2022-08-17T15:17:54.960Z,25.30
2022-08-17T15:20:18.739Z,25.30
2022-08-17T15:22:49.755Z,25.40
2022-08-17T15:25:17.727Z,25.20
2022-08-17T15:27:44.816Z,25.20
2022-08-17T15:30:12.230Z,25.50
2022-08-17T15:32:50.873Z,25.60
2022-08-17T15:35:27.558Z,25.70
2022-08-17T15:38:11.219Z,25.70
2022-08-17T15:40:42.578Z,25.80
2022-08-17T15:43:12.700Z,26.10
2022-08-17T15:45:40.467Z,26.00
2022-08-17T15:48:07.546Z,26.10
2022-08-17T15:50:34.456Z,25.20
2022-08-17T15:53:02.281Z,24.60
2022-08-17T15:55:31.168Z,24.40
2022-08-17T15:57:58.178Z,24.30
2022-08-17T16:00:26.026Z,24.40
2022-08-17T16:03:36.031Z,24.70
2022-08-17T16:05:41.422Z,25.70
2022-08-17T16:08:09.042Z,26.30
2022-08-17T16:10:36.457Z,27.20
2022-08-17T16:13:04.425Z,27.40
2022-08-17T16:15:31.979Z,27.90
2022-08-17T16:17:59.631Z,28.20
2022-08-17T16:20:27.133Z,27.90
2022-08-17T16:22:54.991Z,28.40
2022-08-17T16:25:49.707Z,28.80
2022-08-17T16:28:16.019Z,29.10
2022-08-17T16:30:43.296Z,28.30
2022-08-17T16:33:15.081Z,28.20
2022-08-17T16:35:42.161Z,27.90
2022-08-17T16:38:09.530Z,27.60
2022-08-17T16:40:38.115Z,27.70
2022-08-17T16:43:10.549Z,27.90
2022-08-17T16:45:40.497Z,27.80
2022-08-17T16:48:08.580Z,27.80
2022-08-17T16:50:36.570Z,27.90
2022-08-17T16:53:17.106Z,28.00
2022-08-17T16:55:48.441Z,28.00
2022-08-17T16:58:15.994Z,28.20
2022-08-17T17:00:46.149Z,28.10
2022-08-17T17:03:20.610Z,28.40
2022-08-17T17:06:03.518Z,28.30
2022-08-17T17:08:40.688Z,28.60
2022-08-17T17:11:18.282Z,28.30
2022-08-17T17:14:11.050Z,28.30
2022-08-17T17:16:51.779Z,28.50
2022-08-17T17:19:34.972Z,28.60
2022-08-17T17:22:13.076Z,28.50
2022-08-17T17:24:50.793Z,28.40
2022-08-17T17:27:20.549Z,28.20
2022-08-17T17:30:15.406Z,27.80
2022-08-17T17:33:06.190Z,27.90
2022-08-17T17:35:44.368Z,27.80
2022-08-17T17:38:29.126Z,27.70
2022-08-17T17:41:02.501Z,27.30
2022-08-17T17:43:40.011Z,27.20
2022-08-17T17:46:29.152Z,27.30
2022-08-17T17:49:00.498Z,27.50
2022-08-17T17:52:10.256Z,27.60
2022-08-17T17:54:42.817Z,27.70
2022-08-17T17:57:39.008Z,27.80
2022-08-17T18:00:24.328Z,28.00
2022-08-17T18:03:01.270Z,28.40
2022-08-17T18:05:37.347Z,28.40
2022-08-17T18:08:51.987Z,28.60
2022-08-17T18:11:34.991Z,28.90
2022-08-17T18:14:32.616Z,29.10
2022-08-17T18:17:00.716Z,29.30
2022-08-17T18:19:29.499Z,29.50
2022-08-17T18:22:02.246Z,29.70
2022-08-17T18:24:38.587Z,29.90
2022-08-17T18:27:30.866Z,30.00
2022-08-17T18:30:20.051Z,30.20
2022-08-17T18:32:47.459Z,30.20
2022-08-17T18:35:14.405Z,30.20
2022-08-17T18:37:45.985Z,30.30
2022-08-17T18:40:19.071Z,30.30
2022-08-17T18:42:59.029Z,30.20
2022-08-17T18:45:38.164Z,30.10
2022-08-17T18:48:16.712Z,30.00
2022-08-17T18:50:43.644Z,29.80
2022-08-17T18:53:33.537Z,29.60
2022-08-17T18:56:21.302Z,29.50
2022-08-17T18:59:19.034Z,29.30
2022-08-17T19:02:27.221Z,29.00
2022-08-17T19:05:37.310Z,28.70
2022-08-17T19:08:28.453Z,28.40
2022-08-17T19:11:09.617Z,28.20
2022-08-17T19:13:47.543Z,28.00
2022-08-17T19:16:22.635Z,28.10
2022-08-17T19:19:09.754Z,28.00
2022-08-17T19:21:45.181Z,28.10
2022-08-17T19:24:11.929Z,27.80
2022-08-17T19:26:54.826Z,27.90
2022-08-17T19:29:53.725Z,27.90
2022-08-17T19:32:25.482Z,27.80
2022-08-17T19:34:52.854Z,27.80
2022-08-17T19:37:57.257Z,27.70
2022-08-17T19:40:53.548Z,27.80
2022-08-17T19:43:33.240Z,27.80
2022-08-17T19:46:15.032Z,27.90
2022-08-17T19:49:06.308Z,27.90
2022-08-17T19:52:13.897Z,28.00
2022-08-17T19:54:47.914Z,28.00
2022-08-17T19:57:33.987Z,27.90
2022-08-17T20:00:04.029Z,28.10
2022-08-17T20:02:42.858Z,28.10
2022-08-17T20:05:30.742Z,28.20
2022-08-17T20:08:00.553Z,28.20
2022-08-17T20:10:59.507Z,28.40
2022-08-17T20:13:39.112Z,28.40
2022-08-17T20:16:06.865Z,28.60
2022-08-17T20:18:47.597Z,28.80
2022-08-17T20:21:40.352Z,28.90
2022-08-17T20:24:37.078Z,29.00
2022-08-17T20:27:13.491Z,29.20
2022-08-17T20:30:04.806Z,29.30
2022-08-17T20:32:56.130Z,29.30
2022-08-17T20:35:40.246Z,29.30
2022-08-17T20:38:11.805Z,29.40
2022-08-17T20:41:04.278Z,29.50
2022-08-17T20:43:34.197Z,29.70
2022-08-17T20:46:34.827Z,29.90
2022-08-17T20:49:54.665Z,30.00
2022-08-17T20:52:52.276Z,29.90
2022-08-17T20:55:34.319Z,30.00
2022-08-17T20:58:17.139Z,30.10
2022-08-17T21:00:48.696Z,30.20
2022-08-17T21:03:24.200Z,30.10
2022-08-17T21:06:00.305Z,30.30
2022-08-17T21:08:28.024Z,30.50
2022-08-17T21:10:55.838Z,30.60
2022-08-17T21:13:39.445Z,30.50
2022-08-17T21:16:21.291Z,30.70
2022-08-17T21:19:00.413Z,30.90
2022-08-17T21:21:52.110Z,31.00
2022-08-17T21:24:19.413Z,31.00
2022-08-17T21:27:11.526Z,31.00
2022-08-17T21:29:53.551Z,31.10
2022-08-17T21:32:29.795Z,31.30
2022-08-17T21:35:28.683Z,31.30
2022-08-17T21:38:05.056Z,31.40
2022-08-17T21:40:34.099Z,31.40
2022-08-17T21:43:41.119Z,31.60
2022-08-17T21:46:28.537Z,31.70
2022-08-17T21:49:02.307Z,31.80
2022-08-17T21:51:37.805Z,31.90
2022-08-17T21:54:39.804Z,31.90
2022-08-17T21:57:16.575Z,32.10
2022-08-17T21:59:44.301Z,32.10
2022-08-17T22:02:21.493Z,32.10
2022-08-17T22:05:15.290Z,32.00
2022-08-17T22:07:48.129Z,32.00
2022-08-17T22:10:49.004Z,31.70
2022-08-17T22:13:18.543Z,31.50
2022-08-17T22:16:28.884Z,31.50
2022-08-17T22:19:00.384Z,31.50
2022-08-17T22:21:27.664Z,31.40
2022-08-17T22:24:04.514Z,31.60
2022-08-17T22:27:00.180Z,31.50
2022-08-17T22:29:57.665Z,31.60
2022-08-17T22:32:46.429Z,31.60
2022-08-17T22:35:28.735Z,31.60
2022-08-17T22:38:20.461Z,31.60
2022-08-17T22:40:51.004Z,31.70
2022-08-17T22:43:26.395Z,31.60
2022-08-17T22:46:00.049Z,31.60
2022-08-17T22:48:29.396Z,31.50
2022-08-17T22:51:13.535Z,31.40
2022-08-17T22:54:15.677Z,31.40
2022-08-17T22:57:18.761Z,31.20
2022-08-17T22:59:51.821Z,31.10
2022-08-17T23:02:21.052Z,30.90
2022-08-17T23:04:52.452Z,30.80
2022-08-17T23:07:20.781Z,30.70
2022-08-17T23:09:47.697Z,30.60
2022-08-17T23:12:26.408Z,30.40
2022-08-17T23:15:00.452Z,30.20
2022-08-17T23:17:36.909Z,30.00
2022-08-17T23:20:08.355Z,29.90
2022-08-17T23:22:37.921Z,29.90
2022-08-17T23:25:26.801Z,29.80
2022-08-17T23:27:54.509Z,29.70
2022-08-17T23:30:27.207Z,29.70
2022-08-17T23:32:55.850Z,29.70
2022-08-17T23:35:39.159Z,29.50
2022-08-17T23:38:12.392Z,29.40
2022-08-17T23:40:40.528Z,29.30
2022-08-17T23:43:24.506Z,29.20
2022-08-17T23:45:56.191Z,29.10
2022-08-17T23:48:28.567Z,29.10
2022-08-17T23:51:10.918Z,29.10
2022-08-17T23:53:44.749Z,28.90
2022-08-17T23:56:11.930Z,28.90
2022-08-17T23:58:42.366Z,28.90
